Time;durP1;ratioP1;P1;durP2;ratioP2;P2;SDS_P1;SDS_P2;PMS_P1;PMS_P2;Temp;Humidity;BMP_temperature;BMP_pressure;BME280_temperature;BME280_humidity;BME280_pressure;Samples;Min_cycle;Max_cycle;Signal;HPM_P1;HPM_P2
2022/01/14 00:01:53;;;;;;;40.85;30.75;;;;;;;1.40;45.30;102698.19;5031315;28;20854;-68
2022/01/14 00:04:20;;;;;;;38.88;28.70;;;;;;;1.43;45.32;102694.66;5030935;28;20408;-68
2022/01/14 00:06:47;;;;;;;43.28;31.52;;;;;;;1.31;45.38;102686.09;5030865;28;20410;-69
2022/01/14 00:09:15;;;;;;;45.92;33.05;;;;;;;1.38;45.42;102682.53;5026092;28;20456;-72
2022/01/14 00:11:47;;;;;;;43.08;31.10;;;;;;;1.35;45.53;102684.31;5010231;28;20769;-68
2022/01/14 00:14:24;;;;;;;46.28;33.20;;;;;;;1.39;45.39;102684.25;5030023;28;20418;-68
2022/01/14 00:16:51;;;;;;;40.58;30.30;;;;;;;1.44;45.25;102680.69;5030433;28;20414;-68
2022/01/14 00:19:18;;;;;;;41.93;30.07;;;;;;;1.35;45.33;102674.72;5030742;28;20511;-68
2022/01/14 00:21:46;;;;;;;38.57;27.83;;;;;;;1.34;45.40;102665.16;5029701;28;20526;-68
2022/01/14 00:24:23;;;;;;;41.50;29.73;;;;;;;1.39;45.37;102671.19;5030079;28;20468;-68
2022/01/14 00:32:28;;;;;;;41.95;30.42;;;;;;;1.32;45.21;102666.94;5029766;28;25132;-69
2022/01/14 00:34:55;;;;;;;35.85;27.25;;;;;;;1.43;44.99;102663.31;5029576;28;25178;-68
2022/01/14 00:37:22;;;;;;;41.70;30.90;;;;;;;1.32;45.41;102663.47;5030366;28;20408;-68
2022/01/14 00:39:49;;;;;;;45.35;31.38;;;;;;;1.33;45.41;102676.47;5030471;28;20415;-68
2022/01/14 00:42:16;;;;;;;42.60;31.30;;;;;;;1.37;45.25;102670.34;5030464;28;20414;-68
2022/01/14 00:44:44;;;;;;;42.08;29.55;;;;;;;1.36;45.31;102666.00;5029630;28;20498;-68
2022/01/14 00:47:11;;;;;;;36.70;26.77;;;;;;;1.20;45.72;102661.88;5030398;28;20439;-68
2022/01/14 00:49:47;;;;;;;41.88;30.73;;;;;;;1.35;45.56;102661.66;5084059;27;20406;-69
2022/01/14 00:52:14;;;;;;;39.22;29.27;;;;;;;1.46;45.07;102660.66;5066438;28;20430;-68
2022/01/14 00:54:41;;;;;;;38.97;28.70;;;;;;;1.40;45.24;102665.09;5065724;28;20426;-68
2022/01/14 00:57:28;;;;;;;39.10;28.20;;;;;;;1.47;45.24;102657.16;5065591;28;20967;-69
2022/01/14 00:59:54;;;;;;;39.63;28.10;;;;;;;1.36;45.59;102659.94;5065521;28;20503;-70
2022/01/14 01:02:21;;;;;;;41.42;28.20;;;;;;;1.34;45.86;102656.47;5066231;28;20506;-69
2022/01/14 01:04:50;;;;;;;36.97;26.77;;;;;;;1.41;45.72;102658.13;5065967;28;20412;-69
2022/01/14 01:07:18;;;;;;;40.10;28.33;;;;;;;1.42;45.66;102656.34;5065645;28;20416;-69
2022/01/14 01:09:49;;;;;;;40.53;29.27;;;;;;;1.38;45.72;102656.41;5050482;28;20533;-73
2022/01/14 01:12:29;;;;;;;40.80;28.25;;;;;;;1.32;45.94;102648.66;5064734;28;20423;-70
2022/01/14 01:15:05;;;;;;;39.00;28.27;;;;;;;1.34;45.88;102636.44;5065751;28;20508;-69
2022/01/14 01:17:32;;;;;;;39.83;29.10;;;;;;;1.26;45.98;102635.69;5064691;28;20478;-69
2022/01/14 01:20:02;;;;;;;38.00;26.97;;;;;;;1.18;46.13;102635.78;5064935;28;20503;-69
2022/01/14 01:22:29;;;;;;;40.97;27.98;;;;;;;1.17;45.98;102615.75;5065026;28;20495;-71
2022/01/14 01:24:56;;;;;;;39.67;27.80;;;;;;;1.09;46.39;102617.59;5065151;28;20922;-70
2022/01/14 01:27:23;;;;;;;42.17;29.70;;;;;;;1.10;46.53;102610.66;5065951;28;20412;-67
2022/01/14 01:29:55;;;;;;;40.83;28.43;;;;;;;1.03;46.60;102612.47;5065498;28;20504;-70
2022/01/14 01:32:22;;;;;;;37.97;26.90;;;;;;;1.06;46.27;102602.00;5049438;28;20419;-70
2022/01/14 01:34:49;;;;;;;36.15;26.80;;;;;;;1.07;46.42;102593.28;5065035;28;20420;-70
2022/01/14 01:37:17;;;;;;;41.10;28.00;;;;;;;1.16;46.46;102581.88;5054194;28;20456;-70
2022/01/14 01:39:44;;;;;;;37.42;27.23;;;;;;;1.03;46.55;102575.91;5058306;28;20426;-67
2022/01/14 01:42:11;;;;;;;41.25;28.83;;;;;;;1.15;46.16;102578.38;5048311;28;20424;-70
2022/01/14 01:44:40;;;;;;;38.47;27.57;;;;;;;1.10;46.12;102581.94;5059643;28;20543;-70
2022/01/14 01:47:08;;;;;;;40.78;28.75;;;;;;;1.14;46.33;102567.97;5055238;28;20424;-69
2022/01/14 01:49:37;;;;;;;38.65;26.65;;;;;;;1.08;46.39;102562.84;5063580;28;20506;-70
2022/01/14 01:52:05;;;;;;;40.53;28.00;;;;;;;1.09;46.33;102559.31;5047114;28;20492;-69
2022/01/14 01:54:34;;;;;;;40.83;29.33;;;;;;;1.11;46.34;102558.41;5060081;28;20422;-70
2022/01/14 01:57:01;;;;;;;44.55;31.27;;;;;;;1.09;46.37;102557.56;5053983;28;20416;-70
2022/01/14 01:59:29;;;;;;;46.43;32.63;;;;;;;1.06;46.33;102548.94;5048485;28;20505;-70
2022/01/14 02:01:58;;;;;;;41.78;27.95;;;;;;;1.10;46.31;102550.63;5048053;28;20416;-70
2022/01/14 02:04:26;;;;;;;37.75;26.95;;;;;;;1.05;46.31;102544.59;5045702;28;20508;-69
2022/01/14 02:06:53;;;;;;;38.33;27.03;;;;;;;1.06;46.46;102538.50;5050905;28;20480;-69
2022/01/14 02:09:21;;;;;;;39.00;27.45;;;;;;;1.06;46.35;102528.91;5042804;28;20515;-70
2022/01/14 02:11:49;;;;;;;38.40;27.65;;;;;;;1.18;46.17;102541.78;5034051;28;20503;-69
2022/01/14 02:14:29;;;;;;;38.00;26.23;;;;;;;1.18;46.02;102530.50;5051124;28;20417;-69
2022/01/14 02:17:26;;;;;;;36.10;25.80;;;;;;;1.10;46.27;102540.19;5051440;28;20824;-70
2022/01/14 02:22:49;;;;;;;35.28;25.65;;;;;;;1.10;46.24;102524.53;5032111;28;20495;-69
2022/01/14 02:25:16;;;;;;;37.75;26.40;;;;;;;1.20;46.17;102526.13;5041713;28;20420;-70
2022/01/14 02:27:44;;;;;;;36.90;25.65;;;;;;;1.19;46.11;102516.53;5036635;28;20982;-68
2022/01/14 02:30:12;;;;;;;51.15;32.35;;;;;;;1.07;46.34;102529.78;5047600;28;20432;-69
2022/01/14 02:32:39;;;;;;;34.70;25.65;;;;;;;1.10;46.19;102517.53;5036716;28;20421;-69
2022/01/14 02:35:10;;;;;;;36.67;25.83;;;;;;;1.11;46.44;102510.56;5042564;28;20418;-69
2022/01/14 02:37:37;;;;;;;36.17;25.70;;;;;;;1.10;46.40;102496.66;5044004;28;20416;-69
2022/01/14 02:40:06;;;;;;;35.38;25.33;;;;;;;1.12;46.38;102496.66;5032961;28;20426;-69
2022/01/14 02:42:33;;;;;;;34.42;25.52;;;;;;;1.09;46.38;102496.69;5046060;28;20457;-69
2022/01/14 02:45:05;;;;;;;34.47;25.45;;;;;;;1.01;46.43;102483.72;5037501;28;20423;-69
2022/01/14 02:47:32;;;;;;;36.15;24.88;;;;;;;1.06;46.08;102470.63;5037963;28;20457;-70
2022/01/14 02:50:00;;;;;;;34.35;24.25;;;;;;;0.96;46.67;102464.69;5045992;28;20436;-67
2022/01/14 02:52:41;;;;;;;33.88;25.00;;;;;;;0.94;46.54;102463.84;5033540;28;20455;-68
2022/01/14 02:55:18;;;;;;;35.17;24.88;;;;;;;1.13;46.41;102460.06;5041873;28;20536;-69
2022/01/14 02:57:45;;;;;;;35.92;25.13;;;;;;;1.14;46.19;102467.00;5044287;28;20424;-70
2022/01/14 03:00:15;;;;;;;32.37;24.17;;;;;;;1.19;46.53;102459.09;5033721;28;20510;-69
2022/01/14 03:02:44;;;;;;;38.60;29.87;;;;;;;1.30;46.01;102458.94;5045345;28;20437;-70
2022/01/14 03:05:11;;;;;;;32.70;24.20;;;;;;;1.24;46.28;102446.84;5039564;28;20425;-70
2022/01/14 03:07:41;;;;;;;33.73;23.60;;;;;;;1.35;46.17;102450.13;5037541;28;20522;-67
2022/01/14 03:10:10;;;;;;;34.22;24.40;;;;;;;1.35;46.00;102460.59;5028758;28;21075;-69
2022/01/14 03:12:40;;;;;;;31.13;23.27;;;;;;;1.32;46.12;102455.44;5045358;28;20425;-69
2022/01/14 03:15:09;;;;;;;31.93;23.40;;;;;;;1.39;46.08;102457.03;5038682;28;20417;-69
2022/01/14 03:17:36;;;;;;;33.38;24.38;;;;;;;1.30;46.36;102454.59;5037998;28;20424;-70
2022/01/14 03:20:07;;;;;;;31.13;23.70;;;;;;;1.25;46.42;102452.94;5046740;28;20527;-69
2022/01/14 03:22:35;;;;;;;32.67;23.67;;;;;;;1.26;46.51;102445.09;5031174;28;20429;-69
2022/01/14 03:27:51;;;;;;;31.65;23.10;;;;;;;1.33;46.76;102433.63;5032042;28;20504;-70
2022/01/14 03:30:18;;;;;;;31.63;23.13;;;;;;;1.35;46.80;102434.47;5046345;28;20428;-67
2022/01/14 03:32:45;;;;;;;31.33;22.63;;;;;;;1.46;46.93;102430.81;5034593;28;20503;-70
2022/01/14 03:35:13;;;;;;;29.50;22.90;;;;;;;1.46;46.85;102422.97;5040796;28;20916;-69
2022/01/14 03:37:41;;;;;;;63.30;40.55;;;;;;;1.38;47.24;102415.28;5042950;28;20511;-69
2022/01/14 03:40:10;;;;;;;31.98;23.08;;;;;;;1.38;47.44;102415.28;5033456;28;20501;-68
2022/01/14 03:42:37;;;;;;;32.05;25.38;;;;;;;1.46;47.05;102429.09;5030782;28;20417;-68
2022/01/14 03:45:04;;;;;;;32.83;24.35;;;;;;;1.43;47.38;102423.03;5037404;28;20420;-68
2022/01/14 03:47:31;;;;;;;29.13;23.13;;;;;;;1.42;47.41;102419.56;5038086;28;20833;-69
2022/01/14 03:49:58;;;;;;;31.30;23.92;;;;;;;1.42;47.75;102421.31;5032280;28;20438;-68
2022/01/14 03:52:25;;;;;;;29.38;22.98;;;;;;;1.40;47.80;102410.91;5045691;28;20423;-68
2022/01/14 03:54:52;;;;;;;32.25;25.70;;;;;;;1.50;47.84;102398.53;5035130;28;20443;-68
2022/01/14 03:57:20;;;;;;;29.83;23.77;;;;;;;1.47;48.01;102391.63;5039356;28;20429;-69
2022/01/14 03:59:47;;;;;;;36.20;27.52;;;;;;;1.42;48.28;102385.63;5043210;28;20495;-68
2022/01/14 04:02:14;;;;;;;36.85;28.35;;;;;;;1.58;48.25;102389.69;5031949;28;20505;-68
2022/01/14 04:04:41;;;;;;;37.88;27.88;;;;;;;1.70;48.09;102380.72;5079785;28;20459;-69
2022/01/14 04:07:08;;;;;;;37.55;31.30;;;;;;;1.73;48.18;102385.91;5041304;28;20493;-68
2022/01/14 04:09:37;;;;;;;44.65;39.60;;;;;;;1.61;48.41;102378.31;5025513;28;20495;-71
2022/01/14 04:12:07;;;;;;;37.08;30.67;;;;;;;1.69;48.74;102381.63;5042222;28;20421;-68
2022/01/14 04:17:21;;;;;;;30.40;25.00;;;;;;;1.62;49.35;102377.41;5048873;28;20543;-69
2022/01/14 04:19:48;;;;;;;31.02;25.33;;;;;;;1.66;49.22;102379.06;5048939;28;20519;-69
2022/01/14 04:22:15;;;;;;;31.23;26.17;;;;;;;1.68;49.72;102372.06;5048789;28;20459;-69
2022/01/14 04:24:42;;;;;;;31.13;25.85;;;;;;;1.64;50.00;102366.94;5049046;28;20503;-69
2022/01/14 04:27:09;;;;;;;32.13;25.07;;;;;;;1.59;50.34;102373.09;5047235;28;21044;-69
2022/01/14 04:29:37;;;;;;;29.35;23.25;;;;;;;1.64;50.41;102372.16;5048591;28;21017;-69
2022/01/14 04:32:05;;;;;;;28.20;22.17;;;;;;;1.75;50.44;102368.44;5048395;28;21048;-69
2022/01/14 04:34:32;;;;;;;30.42;23.05;;;;;;;1.76;50.34;102367.56;5048704;28;20505;-69
2022/01/14 04:36:58;;;;;;;36.72;26.90;;;;;;;1.82;50.64;102368.31;5048418;28;20504;-69
2022/01/14 04:39:25;;;;;;;51.53;33.90;;;;;;;1.73;50.99;102358.94;5048631;28;20417;-69
2022/01/14 04:41:52;;;;;;;48.70;33.50;;;;;;;1.76;51.04;102358.84;5049130;28;20416;-69
2022/01/14 04:44:19;;;;;;;42.40;30.03;;;;;;;1.67;51.56;102367.75;5048684;28;20412;-69
2022/01/14 04:47:12;;;;;;;35.42;27.13;;;;;;;1.77;51.67;102365.81;5048771;28;20425;-69
2022/01/14 04:49:39;;;;;;;379.17;129.67;;;;;;;1.72;51.79;102368.50;5048972;28;20448;-69
2022/01/14 04:52:07;;;;;;;33.10;26.45;;;;;;;1.73;52.08;102351.94;5047889;28;20495;-69
2022/01/14 04:54:35;;;;;;;30.20;23.02;;;;;;;1.80;51.82;102353.56;5049147;28;20978;-69
2022/01/14 04:57:02;;;;;;;30.27;24.48;;;;;;;1.87;51.84;102353.44;5048108;28;20542;-69
2022/01/14 04:59:29;;;;;;;34.60;26.02;;;;;;;1.84;51.93;102345.63;5047647;28;20466;-69
2022/01/14 05:01:58;;;;;;;36.85;26.58;;;;;;;1.80;51.96;102330.03;5046707;28;20506;-69
2022/01/14 05:04:25;;;;;;;40.78;30.90;;;;;;;1.79;51.89;102324.84;5047509;28;20416;-68
2022/01/14 05:06:58;;;;;;;33.00;26.08;;;;;;;1.73;52.57;102333.66;5047826;28;20926;-69
2022/01/14 05:09:31;;;;;;;29.58;23.00;;;;;;;1.88;51.97;102323.78;5040755;28;20439;-71
2022/01/14 05:12:06;;;;;;;27.40;22.33;;;;;;;1.89;52.06;102341.19;5042023;28;20452;-69
2022/01/14 05:14:33;;;;;;;28.20;21.05;;;;;;;1.94;51.96;102326.25;5047643;28;20917;-69
2022/01/14 05:17:02;;;;;;;27.95;20.98;;;;;;;1.90;52.16;102303.69;5047507;28;20507;-69
2022/01/14 05:19:29;;;;;;;30.55;25.73;;;;;;;1.85;52.53;102316.00;5047316;28;20504;-69
2022/01/14 05:21:57;;;;;;;29.13;22.48;;;;;;;1.85;52.72;102305.56;5048233;28;20421;-69
2022/01/14 05:24:24;;;;;;;34.38;25.75;;;;;;;1.89;52.47;102307.22;5048106;28;20515;-69
2022/01/14 05:26:52;;;;;;;30.98;23.13;;;;;;;1.85;52.90;102300.34;5049388;28;20416;-69
2022/01/14 05:29:19;;;;;;;36.60;27.42;;;;;;;1.92;52.67;102299.28;5048653;28;20428;-69
2022/01/14 05:31:48;;;;;;;39.28;29.23;;;;;;;1.85;53.04;102300.34;5047801;28;20412;-69
2022/01/14 05:34:17;;;;;;;62.78;48.83;;;;;;;1.98;52.72;102300.00;5044991;28;20880;-69
2022/01/14 05:36:44;;;;;;;41.83;33.70;;;;;;;1.94;52.59;102300.97;5049976;28;20497;-69
2022/01/14 05:39:12;;;;;;;32.33;26.15;;;;;;;1.96;52.74;102298.34;5051556;28;20508;-69
2022/01/14 05:41:39;;;;;;;33.15;27.40;;;;;;;2.11;53.15;102298.03;5051821;28;20849;-70
2022/01/14 05:44:06;;;;;;;30.87;24.90;;;;;;;2.16;52.93;102295.28;5051099;28;20438;-68
2022/01/14 05:46:33;;;;;;;34.70;25.90;;;;;;;2.15;52.90;102297.06;5050172;28;20495;-68
2022/01/14 05:49:00;;;;;;;30.30;21.60;;;;;;;2.24;52.78;102282.91;5050833;28;20423;-68
2022/01/14 05:51:29;;;;;;;31.30;24.73;;;;;;;2.25;52.70;102284.63;5051357;28;21013;-69
2022/01/14 05:53:56;;;;;;;29.67;22.65;;;;;;;2.30;52.65;102295.00;5050862;28;20524;-69
2022/01/14 05:56:23;;;;;;;30.85;22.83;;;;;;;2.42;52.58;102294.69;5049835;28;20926;-68
2022/01/14 05:58:50;;;;;;;29.55;22.45;;;;;;;2.47;52.54;102289.34;5054136;28;20577;-68
2022/01/14 06:01:17;;;;;;;27.70;22.10;;;;;;;2.44;52.68;102285.06;5053125;28;20483;-69
2022/01/14 06:03:44;;;;;;;52.85;44.78;;;;;;;2.49;52.68;102280.56;5050835;28;20420;-69
2022/01/14 06:06:11;;;;;;;39.30;31.27;;;;;;;2.53;52.63;102279.59;5049815;28;20435;-69
2022/01/14 06:08:40;;;;;;;41.78;33.35;;;;;;;2.92;51.95;102274.28;5049889;28;20495;-69
2022/01/14 06:11:07;;;;;;;36.10;27.88;;;;;;;3.50;50.56;102284.09;5050874;28;20432;-69
2022/01/14 06:13:34;;;;;;;40.35;30.15;;;;;;;4.07;49.34;102280.66;5051002;28;20420;-69
2022/01/14 06:16:01;;;;;;;26.50;21.23;;;;;;;4.52;48.23;102287.13;5051055;28;20425;-69
2022/01/14 06:18:28;;;;;;;27.35;22.30;;;;;;;4.94;47.15;102287.47;5050966;28;20447;-69
2022/01/14 06:20:55;;;;;;;26.15;21.50;;;;;;;4.81;47.31;102273.91;5051253;28;20495;-70
2022/01/14 06:23:22;;;;;;;29.45;24.38;;;;;;;5.14;46.68;102275.44;5051505;28;20424;-70
2022/01/14 06:25:50;;;;;;;27.00;21.33;;;;;;;6.40;44.17;102279.47;5050829;28;20515;-70
2022/01/14 06:28:17;;;;;;;24.67;19.35;;;;;;;6.73;43.18;102264.97;5050999;28;20881;-69
2022/01/14 06:30:44;;;;;;;27.90;21.47;;;;;;;7.36;41.68;102242.06;5050762;28;20810;-70
2022/01/14 06:33:11;;;;;;;23.65;20.15;;;;;;;6.89;42.30;102244.97;5051338;28;20495;-69
2022/01/14 06:35:39;;;;;;;27.20;24.30;;;;;;;8.50;39.67;102242.00;5051031;28;20499;-70
2022/01/14 06:38:06;;;;;;;21.08;18.30;;;;;;;9.40;37.89;102239.09;5050833;28;20408;-69
2022/01/14 06:40:33;;;;;;;19.75;17.20;;;;;;;10.19;36.37;102221.53;5050706;28;20515;-70
2022/01/14 06:43:02;;;;;;;22.02;19.63;;;;;;;10.75;35.15;102221.88;5050411;28;20448;-70
2022/01/14 06:45:29;;;;;;;19.90;17.77;;;;;;;12.03;33.02;102238.72;5050867;28;20493;-69
2022/01/14 06:47:56;;;;;;;19.17;16.53;;;;;;;12.30;32.36;102236.06;5050276;28;20780;-69
2022/01/14 06:50:23;;;;;;;16.27;14.65;;;;;;;12.63;32.15;102234.75;5048815;28;20434;-68
2022/01/14 06:52:50;;;;;;;17.73;14.50;;;;;;;13.21;30.76;102229.94;5050477;28;20599;-70
2022/01/14 06:55:18;;;;;;;16.88;15.05;;;;;;;13.86;29.48;102246.69;5050549;28;20507;-69
2022/01/14 06:57:45;;;;;;;20.63;18.42;;;;;;;13.96;29.63;102243.22;5050517;28;20419;-69
2022/01/14 07:00:15;;;;;;;26.20;23.00;;;;;;;15.00;27.83;102237.25;5050756;28;20429;-70
2022/01/14 07:02:43;;;;;;;21.98;19.65;;;;;;;15.42;27.18;102228.66;5050704;28;20499;-69
2022/01/14 07:05:11;;;;;;;19.77;17.88;;;;;;;16.42;26.07;102228.56;5050936;28;20423;-70
2022/01/14 07:07:39;;;;;;;15.57;13.98;;;;;;;16.15;26.04;102237.06;5050001;28;20506;-70
2022/01/14 07:10:09;;;;;;;15.60;14.00;;;;;;;16.83;25.23;102232.28;5049647;28;20618;-70
2022/01/14 07:12:39;;;;;;;16.23;14.25;;;;;;;17.89;24.05;102241.78;5050095;28;20495;-70
2022/01/14 07:15:08;;;;;;;20.27;15.15;;;;;;;18.72;23.10;102239.56;5050697;28;20870;-70
2022/01/14 07:17:37;;;;;;;17.95;16.05;;;;;;;19.08;22.43;102225.50;5050283;28;20520;-70
2022/01/14 07:20:08;;;;;;;17.05;15.35;;;;;;;18.94;22.70;102225.00;5050170;28;20413;-70
2022/01/14 07:22:35;;;;;;;17.02;15.32;;;;;;;19.62;22.10;102211.25;5050314;28;20439;-70
2022/01/14 07:25:02;;;;;;;15.07;13.63;;;;;;;20.70;20.45;102211.34;5050098;28;20425;-70
2022/01/14 07:27:29;;;;;;;13.45;12.15;;;;;;;20.99;20.36;102218.25;5049278;28;20814;-70
2022/01/14 07:29:56;;;;;;;15.52;13.95;;;;;;;21.01;20.12;102213.56;5050031;28;20432;-70
2022/01/14 07:32:23;;;;;;;19.15;17.23;;;;;;;21.24;20.14;102200.34;5049690;28;20875;-69
2022/01/14 07:34:52;;;;;;;19.10;17.23;;;;;;;22.31;18.91;102211.50;5049189;28;20799;-69
2022/01/14 07:37:20;;;;;;;18.25;16.52;;;;;;;21.43;19.35;102206.53;5050105;28;20408;-69
2022/01/14 07:39:48;;;;;;;16.33;13.80;;;;;;;19.42;21.09;102183.66;5049658;28;20810;-70
2022/01/14 07:42:15;;;;;;;14.95;13.40;;;;;;;19.52;21.43;102194.34;5050387;28;20499;-70
2022/01/14 07:44:43;;;;;;;15.85;14.35;;;;;;;18.95;22.10;102189.06;5049349;28;20505;-69
2022/01/14 07:47:10;;;;;;;20.92;18.67;;;;;;;20.06;20.97;102189.06;5050007;28;20426;-70
2022/01/14 07:49:37;;;;;;;34.00;30.63;;;;;;;22.17;19.23;102186.81;5049374;28;20811;-70
2022/01/14 07:52:06;;;;;;;15.25;13.65;;;;;;;22.85;18.13;102179.38;5060547;28;20923;-70
2022/01/14 07:54:33;;;;;;;12.90;11.70;;;;;;;23.09;17.98;102183.03;5069846;28;20407;-69
2022/01/14 07:57:01;;;;;;;13.63;12.23;;;;;;;23.54;17.64;102178.75;5069596;28;20414;-69
2022/01/14 07:59:30;;;;;;;13.38;12.07;;;;;;;24.46;16.73;102180.69;5069368;28;20439;-69
2022/01/14 08:01:59;;;;;;;15.33;13.83;;;;;;;23.67;17.01;102170.91;5070182;28;20418;-70
2022/01/14 08:04:26;;;;;;;15.00;13.23;;;;;;;23.71;17.03;102161.41;5070109;28;20418;-69
2022/01/14 08:06:57;;;;;;;17.23;14.10;;;;;;;24.65;16.25;102168.50;5069793;28;20418;-70
2022/01/14 08:09:25;;;;;;;13.65;12.35;;;;;;;25.05;15.86;102161.78;5069574;28;20417;-69
2022/01/14 08:11:52;;;;;;;13.23;12.02;;;;;;;25.81;15.51;102161.44;5069970;28;20511;-68
2022/01/14 08:14:20;;;;;;;13.20;11.87;;;;;;;26.10;15.41;102151.53;5070033;28;20492;-68
2022/01/14 08:16:47;;;;;;;44.38;40.28;;;;;;;26.29;14.86;102144.56;5069630;28;20411;-68
2022/01/14 08:19:14;;;;;;;29.63;26.55;;;;;;;27.02;14.58;102152.38;5069496;28;20966;-69
2022/01/14 08:21:41;;;;;;;29.65;26.83;;;;;;;26.26;15.04;102139.53;5069519;28;20776;-69
2022/01/14 08:24:08;;;;;;;20.33;18.50;;;;;;;26.58;14.47;102138.09;5069320;28;21011;-68
2022/01/14 08:26:36;;;;;;;20.43;18.20;;;;;;;26.80;14.57;102144.31;5069518;28;20419;-68
2022/01/14 08:29:04;;;;;;;28.05;25.33;;;;;;;27.33;14.25;102136.44;5069568;28;20414;-68
2022/01/14 08:31:31;;;;;;;38.58;34.58;;;;;;;26.89;14.56;102132.25;5069691;28;20430;-69
2022/01/14 08:33:57;;;;;;;24.40;21.80;;;;;;;27.97;13.81;102115.22;5069301;28;20990;-69
2022/01/14 08:36:27;;;;;;;31.70;28.58;;;;;;;27.89;13.67;102121.69;5069683;28;20505;-68
2022/01/14 08:38:54;;;;;;;21.70;19.65;;;;;;;28.22;13.53;102120.03;5069319;28;20441;-69
2022/01/14 08:41:23;;;;;;;37.00;33.55;;;;;;;29.14;12.88;102118.16;5069461;28;20410;-68
2022/01/14 08:43:51;;;;;;;17.60;16.02;;;;;;;30.58;12.13;102112.03;5069533;28;20983;-68
2022/01/14 08:46:18;;;;;;;19.33;17.58;;;;;;;29.55;12.47;102106.78;5069413;28;20549;-69
2022/01/14 08:48:45;;;;;;;17.20;15.70;;;;;;;29.40;12.53;102113.59;5069286;28;20506;-68
2022/01/14 08:51:12;;;;;;;16.58;14.88;;;;;;;28.66;12.88;102123.97;5069327;28;20437;-69
2022/01/14 08:53:39;;;;;;;16.10;14.60;;;;;;;27.62;13.98;102123.53;5069059;28;20514;-69
2022/01/14 08:56:06;;;;;;;12.52;11.32;;;;;;;28.73;13.02;102124.78;5069088;28;20793;-70
2022/01/14 08:58:34;;;;;;;15.77;13.35;;;;;;;26.97;14.45;102123.91;5069276;28;20411;-69
2022/01/14 09:01:03;;;;;;;12.13;10.95;;;;;;;25.79;14.98;102131.78;5068928;28;20418;-70
2022/01/14 09:03:29;;;;;;;13.75;11.90;;;;;;;25.81;15.58;102128.84;5069091;28;20411;-70
2022/01/14 09:05:56;;;;;;;13.63;10.35;;;;;;;25.59;15.66;102128.88;5069295;28;20415;-70
2022/01/14 09:08:23;;;;;;;11.65;10.30;;;;;;;25.69;15.08;102116.84;5068005;28;20446;-69
2022/01/14 09:10:50;;;;;;;13.77;11.70;;;;;;;26.75;14.62;102115.00;5071844;28;20427;-69
2022/01/14 09:13:18;;;;;;;15.93;14.32;;;;;;;27.51;13.84;102124.13;5072913;28;20495;-69
2022/01/14 09:15:45;;;;;;;12.65;11.45;;;;;;;28.08;13.47;102128.22;5072856;28;20425;-69
2022/01/14 09:18:14;;;;;;;13.23;11.48;;;;;;;29.15;12.68;102123.38;5072904;28;20498;-69
2022/01/14 09:20:41;;;;;;;11.30;10.15;;;;;;;29.52;12.48;102120.91;5072585;28;20407;-70
2022/01/14 09:23:13;;;;;;;14.70;13.27;;;;;;;30.68;11.71;102115.13;5072741;28;20403;-69
2022/01/14 09:25:40;;;;;;;11.10;9.43;;;;;;;29.74;12.29;102105.00;5072870;28;20414;-70
2022/01/14 09:28:07;;;;;;;10.50;9.57;;;;;;;30.21;11.85;102107.38;5073110;28;20418;-70
2022/01/14 09:30:34;;;;;;;10.55;9.38;;;;;;;30.85;11.59;102094.25;5072540;28;20506;-70
2022/01/14 09:33:01;;;;;;;11.30;9.27;;;;;;;30.43;11.74;102096.00;5072907;28;20454;-71
2022/01/14 09:35:29;;;;;;;11.63;10.45;;;;;;;30.43;11.74;102088.63;5071679;28;20502;-71
2022/01/14 09:37:56;;;;;;;12.82;11.13;;;;;;;31.39;11.28;102082.59;5072691;28;20403;-71
2022/01/14 09:40:23;;;;;;;15.77;14.18;;;;;;;31.27;11.29;102077.94;5072456;28;20427;-70
2022/01/14 09:42:53;;;;;;;13.15;11.85;;;;;;;31.28;11.32;102068.66;5072701;28;20510;-71
2022/01/14 09:45:21;;;;;;;16.42;14.63;;;;;;;31.73;11.01;102065.47;5072616;28;20468;-70
2022/01/14 09:47:49;;;;;;;14.52;12.75;;;;;;;31.05;11.41;102055.72;5072176;28;21016;-70
2022/01/14 09:50:16;;;;;;;11.23;10.13;;;;;;;31.19;11.40;102059.13;5072429;28;20433;-70
2022/01/14 09:52:47;;;;;;;11.52;10.32;;;;;;;30.50;11.67;102040.19;5072235;28;20514;-71
2022/01/14 09:55:14;;;;;;;24.85;22.55;;;;;;;31.56;11.09;102045.31;5072472;28;20406;-69
2022/01/14 09:57:41;;;;;;;12.15;10.95;;;;;;;32.36;10.75;102032.91;5072067;28;20987;-68
2022/01/14 10:00:10;;;;;;;12.15;10.90;;;;;;;31.42;11.08;102022.75;5072119;28;20411;-68
2022/01/14 10:02:39;;;;;;;12.13;10.97;;;;;;;32.63;10.74;102019.53;5072255;28;20411;-71
2022/01/14 10:05:09;;;;;;;19.60;17.70;;;;;;;31.84;11.20;102013.66;5072047;28;20464;-68
2022/01/14 10:07:36;;;;;;;36.65;32.90;;;;;;;32.07;11.15;102005.44;5072053;28;20422;-68
2022/01/14 10:10:23;;;;;;;19.33;17.35;;;;;;;30.46;11.90;101987.03;5071770;28;20450;-69
2022/01/14 10:12:53;;;;;;;19.67;18.07;;;;;;;29.13;12.79;101980.88;5071845;28;20415;-68
2022/01/14 10:15:20;;;;;;;24.33;20.67;;;;;;;29.55;12.40;101969.44;5071646;28;20805;-69
2022/01/14 10:17:47;;;;;;;20.02;17.92;;;;;;;30.47;12.17;101955.88;5071506;28;20415;-69
2022/01/14 10:20:16;;;;;;;13.30;11.90;;;;;;;30.78;11.87;101944.94;5071409;28;20411;-68
2022/01/14 10:22:44;;;;;;;12.73;11.55;;;;;;;29.73;12.86;101939.47;5070262;28;20514;-68
2022/01/14 10:25:14;;;;;;;13.02;10.07;;;;;;;30.09;12.61;101934.25;5071732;28;20449;-68
2022/01/14 10:27:43;;;;;;;10.45;9.43;;;;;;;29.39;13.00;101929.06;5072010;28;20450;-69
2022/01/14 10:30:16;;;;;;;11.70;9.18;;;;;;;29.33;12.91;101917.97;5071265;28;20443;-69
2022/01/14 10:32:46;;;;;;;11.10;8.27;;;;;;;29.20;13.46;101909.91;5071385;28;21005;-69
2022/01/14 10:35:16;;;;;;;8.97;8.17;;;;;;;29.70;12.83;101907.09;5071612;28;20438;-70
2022/01/14 10:37:43;;;;;;;11.52;10.32;;;;;;;30.68;12.44;101901.78;5071332;28;20494;-70
2022/01/14 10:40:18;;;;;;;12.03;10.83;;;;;;;30.07;12.65;101887.19;5071572;28;20438;-70
2022/01/14 10:42:46;;;;;;;10.90;9.87;;;;;;;28.32;13.80;101894.25;5071511;28;20458;-69
2022/01/14 10:45:22;;;;;;;10.98;9.88;;;;;;;28.35;13.93;101885.66;5071211;28;20911;-70
2022/01/14 10:47:58;;;;;;;8.73;7.82;;;;;;;27.88;14.21;101883.09;5071101;28;20418;-70
2022/01/14 10:50:35;;;;;;;12.70;9.07;;;;;;;28.67;13.99;101880.22;5071050;28;20422;-69
2022/01/14 10:53:04;;;;;;;9.70;8.80;;;;;;;28.20;14.35;101869.56;5071241;28;20442;-70
2022/01/14 10:55:37;;;;;;;10.70;9.60;;;;;;;27.86;14.41;101862.53;5070888;28;20425;-69
2022/01/14 10:58:05;;;;;;;13.27;10.57;;;;;;;27.20;15.05;101861.59;5070826;28;20449;-69
2022/01/14 11:00:40;;;;;;;10.70;9.45;;;;;;;26.86;14.99;101859.91;5070745;28;20453;-69
2022/01/14 11:03:07;;;;;;;15.75;14.25;;;;;;;26.47;15.41;101859.59;5071068;28;20411;-70
2022/01/14 11:05:35;;;;;;;12.67;11.10;;;;;;;26.22;15.73;101831.28;5070754;28;20832;-69
2022/01/14 11:08:02;;;;;;;10.10;8.23;;;;;;;25.85;16.02;101838.84;5071054;28;20468;-69
2022/01/14 11:10:32;;;;;;;12.38;11.18;;;;;;;25.77;16.41;101829.84;5070816;28;20495;-69
2022/01/14 11:13:02;;;;;;;10.43;9.43;;;;;;;25.29;16.50;101812.66;5070923;28;20464;-70
2022/01/14 11:15:31;;;;;;;13.57;11.73;;;;;;;25.28;16.42;101811.78;5070482;28;20415;-69
2022/01/14 11:18:01;;;;;;;12.23;10.88;;;;;;;24.54;17.60;101804.06;5070864;28;20410;-70
2022/01/14 11:20:32;;;;;;;13.05;11.35;;;;;;;24.69;17.36;101795.88;5070909;28;20418;-69
2022/01/14 11:23:14;;;;;;;11.63;10.52;;;;;;;24.13;17.98;101786.53;5070489;28;20472;-67
2022/01/14 11:25:45;;;;;;;11.73;10.37;;;;;;;23.56;18.46;101787.22;5070236;28;20410;-70
2022/01/14 11:28:18;;;;;;;13.57;10.95;;;;;;;23.45;19.05;101782.28;5070056;28;20506;-69
2022/01/14 11:30:45;;;;;;;10.90;8.82;;;;;;;23.35;19.06;101769.03;5070414;28;20422;-68
2022/01/14 11:33:14;;;;;;;10.55;9.15;;;;;;;23.16;19.45;101757.75;5068789;28;20413;-68
2022/01/14 11:35:41;;;;;;;9.70;7.00;;;;;;;21.83;20.35;101738.31;5070312;28;20407;-68